Time;durP1;ratioP1;P1;durP2;ratioP2;P2;SDS_P1;SDS_P2;PMS_P1;PMS_P2;Temp;Humidity;BMP_temperature;BMP_pressure;BME280_temperature;BME280_humidity;BME280_pressure;Samples;Min_cycle;Max_cycle;Signal;HPM_P1;HPM_P2
2022/08/09 00:00:29;;;;;;;6.07;1.70;;;19.70;99.90;;;;;;5034185;28;20029;-78
2022/08/09 00:02:55;;;;;;;3.53;1.85;;;19.80;99.90;;;;;;5034583;28;20037;-78
2022/08/09 00:05:21;;;;;;;4.22;1.30;;;19.80;99.90;;;;;;5034563;28;20087;-78
2022/08/09 00:07:47;;;;;;;7.10;2.00;;;20.00;99.90;;;;;;5034325;28;20029;-78
2022/08/09 00:10:13;;;;;;;9.82;2.08;;;19.90;99.90;;;;;;5034433;28;20061;-78
2022/08/09 00:12:39;;;;;;;4.13;2.00;;;20.00;99.90;;;;;;5033012;28;20040;-78
2022/08/09 00:15:05;;;;;;;2.72;1.63;;;19.90;99.90;;;;;;5034456;28;20025;-78
2022/08/09 00:17:31;;;;;;;5.75;1.75;;;19.80;99.90;;;;;;5034003;28;20168;-78
2022/08/09 00:19:57;;;;;;;5.55;1.90;;;20.00;99.90;;;;;;5034230;28;20496;-78
2022/08/09 00:22:22;;;;;;;8.32;2.05;;;19.90;99.90;;;;;;5034476;28;20039;-78
2022/08/09 00:24:48;;;;;;;5.13;1.95;;;19.80;99.90;;;;;;5033806;28;20029;-78
2022/08/09 00:27:14;;;;;;;5.32;1.85;;;19.80;99.90;;;;;;5034250;28;20045;-78
2022/08/09 00:29:40;;;;;;;5.40;2.22;;;19.80;99.90;;;;;;5021727;28;20467;-79
2022/08/09 00:32:05;;;;;;;3.60;2.03;;;19.70;99.90;;;;;;5014453;28;20124;-78
2022/08/09 00:34:31;;;;;;;5.90;2.38;;;19.70;99.90;;;;;;5019393;28;20029;-78
2022/08/09 00:36:57;;;;;;;9.60;2.55;;;19.70;99.90;;;;;;5033227;28;20033;-78
2022/08/09 00:39:23;;;;;;;5.88;2.30;;;19.80;99.90;;;;;;5020528;28;20029;-78
2022/08/09 00:41:49;;;;;;;6.45;2.90;;;19.80;99.90;;;;;;5032905;28;20553;-78
2022/08/09 00:44:15;;;;;;;5.97;2.20;;;19.90;99.90;;;;;;5033734;28;20039;-78
2022/08/09 00:46:42;;;;;;;8.30;2.10;;;19.70;99.90;;;;;;5023122;28;20112;-78
2022/08/09 00:49:09;;;;;;;4.45;2.20;;;19.80;99.90;;;;;;5030386;28;20035;-78
2022/08/09 00:51:35;;;;;;;7.97;3.38;;;20.00;99.90;;;;;;5033790;28;20026;-79
2022/08/09 00:54:02;;;;;;;9.70;2.80;;;20.00;99.90;;;;;;5033077;28;20037;-79
2022/08/09 00:56:29;;;;;;;6.38;2.13;;;20.00;99.90;;;;;;5032537;28;20117;-78
2022/08/09 00:58:56;;;;;;;8.68;2.70;;;20.00;99.90;;;;;;5033261;28;20464;-79
2022/08/09 01:01:28;;;;;;;6.75;2.50;;;19.90;99.90;;;;;;5033325;28;20076;-79
2022/08/09 01:04:07;;;;;;;6.53;2.40;;;20.10;99.90;;;;;;5021704;28;20109;-78
2022/08/09 01:06:37;;;;;;;6.43;2.47;;;19.80;99.90;;;;;;5032937;28;20079;-79
2022/08/09 01:09:15;;;;;;;6.40;2.38;;;19.80;99.90;;;;;;5031441;28;20466;-78
2022/08/09 01:11:56;;;;;;;7.90;2.35;;;19.70;99.90;;;;;;5033327;28;20040;-78
2022/08/09 01:14:26;;;;;;;6.67;2.83;;;19.90;99.90;;;;;;5015660;28;20465;-78
2022/08/09 01:16:59;;;;;;;7.00;2.60;;;19.90;99.90;;;;;;5019947;28;20390;-79
2022/08/09 01:19:47;;;;;;;5.30;2.88;;;20.00;99.90;;;;;;5033075;28;20115;-78
2022/08/09 01:22:43;;;;;;;7.43;2.72;;;19.90;99.90;;;;;;5020552;28;20029;-78
2022/08/09 01:25:17;;;;;;;11.23;2.78;;;19.60;99.90;;;;;;5032883;28;20029;-78
2022/08/09 01:27:46;;;;;;;6.35;2.72;;;19.50;99.90;;;;;;5033189;28;20049;-78
2022/08/09 01:30:13;;;;;;;7.63;3.00;;;19.50;99.90;;;;;;5032602;28;20025;-79
2022/08/09 01:32:44;;;;;;;6.88;2.30;;;19.40;99.90;;;;;;5013372;28;20475;-78
2022/08/09 01:35:30;;;;;;;7.80;2.72;;;19.30;99.90;;;;;;5013173;28;20045;-78
2022/08/09 01:37:59;;;;;;;9.48;2.53;;;19.40;99.90;;;;;;5000896;28;20072;-79
2022/08/09 01:40:27;;;;;;;6.40;2.72;;;19.40;99.90;;;;;;5010339;28;20053;-79
2022/08/09 01:42:54;;;;;;;7.55;2.88;;;19.40;99.90;;;;;;5008743;28;20040;-78
2022/08/09 01:45:22;;;;;;;7.68;3.10;;;19.40;99.90;;;;;;5007573;28;20117;-78
2022/08/09 01:47:48;;;;;;;7.38;2.80;;;19.40;99.90;;;;;;5013206;28;20021;-79
2022/08/09 01:50:15;;;;;;;7.00;2.58;;;19.40;99.90;;;;;;5012735;28;20558;-79
2022/08/09 01:52:42;;;;;;;6.18;3.38;;;19.40;99.90;;;;;;5012636;28;20514;-79
2022/08/09 01:55:10;;;;;;;6.30;2.90;;;19.40;99.90;;;;;;5012788;28;20528;-78
2022/08/09 01:57:44;;;;;;;5.93;2.90;;;19.50;99.90;;;;;;5012875;28;20142;-78
2022/08/09 02:00:13;;;;;;;8.07;3.30;;;19.50;99.90;;;;;;5012537;28;20025;-78
2022/08/09 02:02:49;;;;;;;5.82;2.58;;;19.50;99.90;;;;;;5008290;28;20023;-78
2022/08/09 02:05:19;;;;;;;8.48;2.90;;;19.30;99.90;;;;;;5004344;28;20021;-78
2022/08/09 02:08:01;;;;;;;7.72;2.35;;;19.30;99.90;;;;;;4991931;28;20034;-78
2022/08/09 02:10:34;;;;;;;6.97;2.50;;;19.50;99.90;;;;;;5005692;28;20026;-78
2022/08/09 02:13:07;;;;;;;5.80;3.03;;;19.40;99.90;;;;;;5011559;28;20026;-77
2022/08/09 02:15:37;;;;;;;6.82;2.53;;;19.50;99.90;;;;;;5012636;28;20034;-78
2022/08/09 02:18:04;;;;;;;8.27;2.90;;;19.50;99.90;;;;;;5012338;28;20033;-78
2022/08/09 02:20:32;;;;;;;10.45;3.28;;;19.40;99.90;;;;;;5012525;28;20034;-77
2022/08/09 02:23:16;;;;;;;10.52;3.33;;;19.30;99.90;;;;;;5008005;28;20026;-77
2022/08/09 02:25:45;;;;;;;11.43;3.50;;;19.20;99.90;;;;;;5012558;28;20414;-77
2022/08/09 02:28:24;;;;;;;5.20;2.92;;;19.10;99.90;;;;;;5012532;28;20116;-78
2022/08/09 02:31:21;;;;;;;7.35;3.30;;;19.10;99.90;;;;;;5012481;28;20489;-79
2022/08/09 02:33:50;;;;;;;9.43;3.25;;;19.10;99.90;;;;;;5012884;28;20030;-77
2022/08/09 02:36:21;;;;;;;7.68;3.25;;;19.00;99.90;;;;;;5008642;28;20058;-78
2022/08/09 02:38:54;;;;;;;10.65;3.75;;;19.00;99.90;;;;;;4998745;28;20026;-78
2022/08/09 02:41:30;;;;;;;6.53;3.55;;;19.00;99.90;;;;;;5012362;28;20030;-77
2022/08/09 02:44:03;;;;;;;6.75;3.70;;;19.10;99.90;;;;;;4991754;28;20030;-78
2022/08/09 02:46:31;;;;;;;6.72;3.38;;;18.90;99.90;;;;;;5003948;28;20057;-77
2022/08/09 02:49:02;;;;;;;6.55;3.45;;;18.90;99.90;;;;;;5011924;28;20088;-77
2022/08/09 02:51:31;;;;;;;7.47;3.28;;;18.90;99.90;;;;;;5012452;28;20041;-77
2022/08/09 02:53:58;;;;;;;7.90;3.22;;;18.80;99.90;;;;;;5012312;28;20038;-78
2022/08/09 02:56:26;;;;;;;7.63;3.03;;;18.70;99.90;;;;;;5012398;28;20122;-77
2022/08/09 02:58:53;;;;;;;6.28;3.50;;;18.50;99.90;;;;;;5012041;28;20041;-77
2022/08/09 03:01:20;;;;;;;9.68;3.70;;;18.50;99.90;;;;;;5012175;28;20077;-77
2022/08/09 03:03:47;;;;;;;6.70;3.33;;;18.60;99.90;;;;;;5012080;28;20018;-77
2022/08/09 03:06:14;;;;;;;8.27;3.65;;;18.80;99.90;;;;;;5014357;28;20045;-77
2022/08/09 03:08:44;;;;;;;7.50;3.45;;;18.80;99.90;;;;;;5011311;28;20025;-77
2022/08/09 03:11:14;;;;;;;5.55;3.67;;;18.80;99.90;;;;;;5014271;28;20442;-77
2022/08/09 03:13:41;;;;;;;12.13;3.65;;;18.70;99.90;;;;;;5011403;28;20375;-77
2022/08/09 03:16:07;;;;;;;10.20;4.18;;;18.50;99.90;;;;;;5013007;28;20022;-77
2022/08/09 03:18:35;;;;;;;12.07;3.65;;;18.70;99.90;;;;;;5010647;28;20372;-78
2022/08/09 03:21:01;;;;;;;13.38;4.05;;;18.50;99.90;;;;;;5011383;28;20034;-76
2022/08/09 03:23:29;;;;;;;9.60;4.05;;;18.50;99.90;;;;;;5015508;28;20025;-76
2022/08/09 03:25:56;;;;;;;7.43;4.00;;;18.50;99.90;;;;;;5015490;28;20512;-76
2022/08/09 03:28:24;;;;;;;6.97;4.35;;;18.50;99.90;;;;;;5015465;28;20359;-76
2022/08/09 03:30:52;;;;;;;8.35;4.13;;;18.50;99.90;;;;;;5014206;28;20390;-76
2022/08/09 03:33:20;;;;;;;8.65;4.00;;;18.60;99.90;;;;;;5014754;28;20037;-76
2022/08/09 03:35:52;;;;;;;7.78;4.63;;;18.60;99.90;;;;;;5014281;28;20387;-77
2022/08/09 03:38:18;;;;;;;8.10;4.30;;;18.70;99.90;;;;;;5001379;28;20026;-76
2022/08/09 03:40:43;;;;;;;12.98;5.03;;;18.60;99.90;;;;;;5015128;28;20037;-76
2022/08/09 03:43:09;;;;;;;9.02;4.80;;;18.50;99.90;;;;;;5015109;28;20022;-76
2022/08/09 03:45:35;;;;;;;7.82;4.53;;;18.40;99.90;;;;;;5014878;28;20034;-76
2022/08/09 03:48:04;;;;;;;13.38;5.70;;;18.50;99.90;;;;;;5014662;28;20470;-76
2022/08/09 03:50:31;;;;;;;11.15;5.43;;;18.40;99.90;;;;;;5014987;28;20052;-76
2022/08/09 03:53:01;;;;;;;9.07;5.82;;;18.50;99.90;;;;;;5014707;28;20018;-76
2022/08/09 03:55:26;;;;;;;12.75;5.32;;;18.30;99.90;;;;;;5014682;28;20045;-77
2022/08/09 03:57:53;;;;;;;11.13;5.03;;;18.20;99.90;;;;;;5014917;28;20085;-76
2022/08/09 04:00:19;;;;;;;10.77;5.40;;;18.20;99.90;;;;;;5014816;28;20034;-76
2022/08/09 04:02:46;;;;;;;11.30;5.78;;;18.20;99.90;;;;;;5014177;28;20097;-76
2022/08/09 04:05:12;;;;;;;12.02;5.22;;;18.10;99.90;;;;;;5014640;28;20045;-77
2022/08/09 04:07:38;;;;;;;8.10;5.35;;;18.00;99.90;;;;;;5014526;28;20033;-76
2022/08/09 04:10:05;;;;;;;8.80;5.75;;;18.10;99.90;;;;;;5014565;28;20037;-77
2022/08/09 04:12:46;;;;;;;11.55;5.63;;;18.10;99.90;;;;;;5014307;28;20116;-76
2022/08/09 04:15:14;;;;;;;13.90;5.43;;;18.00;99.90;;;;;;5013347;28;20394;-76
2022/08/09 04:17:41;;;;;;;11.60;5.03;;;18.10;99.90;;;;;;5013695;28;20098;-78
2022/08/09 04:20:09;;;;;;;12.88;5.30;;;18.10;99.90;;;;;;5013765;28;20067;-78
2022/08/09 04:22:35;;;;;;;12.82;5.57;;;18.00;99.90;;;;;;5013666;28;20030;-78
2022/08/09 04:25:02;;;;;;;14.57;5.53;;;18.10;99.90;;;;;;5014221;28;20037;-77
2022/08/09 04:27:28;;;;;;;11.85;5.28;;;18.10;99.90;;;;;;5014188;28;20034;-78
2022/08/09 04:29:54;;;;;;;8.77;5.20;;;18.10;99.90;;;;;;5014192;28;20459;-78
2022/08/09 04:32:20;;;;;;;17.95;5.80;;;18.10;99.90;;;;;;5014133;28;20033;-78
2022/08/09 04:34:46;;;;;;;12.35;5.57;;;18.00;99.90;;;;;;5014302;28;20508;-78
2022/08/09 04:37:11;;;;;;;17.58;6.05;;;18.00;99.90;;;;;;5009255;28;20054;-78
2022/08/09 04:39:37;;;;;;;16.92;5.65;;;18.10;99.90;;;;;;5005102;28;20486;-78
2022/08/09 04:42:03;;;;;;;16.30;5.55;;;17.90;99.90;;;;;;5014126;28;20072;-79
2022/08/09 04:44:29;;;;;;;15.75;5.70;;;17.80;99.90;;;;;;5013938;28;20026;-78
2022/08/09 04:46:55;;;;;;;18.80;6.03;;;18.00;99.90;;;;;;5012663;28;20446;-78
2022/08/09 04:49:21;;;;;;;9.80;5.05;;;18.10;99.90;;;;;;5013787;28;20025;-79
2022/08/09 04:51:47;;;;;;;9.57;5.50;;;18.20;99.90;;;;;;5012849;28;20058;-78
2022/08/09 04:54:12;;;;;;;17.58;5.55;;;18.30;99.90;;;;;;5013677;28;20069;-79
2022/08/09 04:56:38;;;;;;;13.82;5.10;;;18.40;99.90;;;;;;5013971;28;20059;-78
2022/08/09 04:59:04;;;;;;;9.15;5.10;;;18.50;99.90;;;;;;5013069;28;20025;-79
2022/08/09 05:01:30;;;;;;;14.98;5.82;;;18.40;99.90;;;;;;5013759;28;20054;-79
2022/08/09 05:03:55;;;;;;;12.07;5.03;;;18.50;99.90;;;;;;5013741;28;20049;-78
2022/08/09 05:06:21;;;;;;;11.60;4.93;;;18.50;99.90;;;;;;5013344;28;20405;-79
2022/08/09 05:08:47;;;;;;;7.25;4.88;;;18.40;99.90;;;;;;5013164;28;20061;-78
2022/08/09 05:11:13;;;;;;;12.20;4.55;;;18.40;99.90;;;;;;5013275;28;20390;-78
2022/08/09 05:13:39;;;;;;;11.20;4.93;;;18.40;99.90;;;;;;5008935;28;20027;-78
2022/08/09 05:16:08;;;;;;;12.55;4.28;;;18.40;99.90;;;;;;5010483;28;20022;-79
2022/08/09 05:18:34;;;;;;;7.45;4.43;;;18.50;99.90;;;;;;5013576;28;20557;-78
2022/08/09 05:21:00;;;;;;;9.10;4.85;;;18.60;99.90;;;;;;5010212;28;20061;-79
2022/08/09 05:23:26;;;;;;;10.20;4.65;;;18.70;99.90;;;;;;5013300;28;20080;-78
2022/08/09 05:25:52;;;;;;;14.15;5.63;;;18.80;99.90;;;;;;5013335;28;20486;-78
2022/08/09 05:28:19;;;;;;;10.35;5.03;;;18.90;99.90;;;;;;5012545;28;20022;-78
2022/08/09 05:30:46;;;;;;;17.38;5.75;;;18.70;99.90;;;;;;5013602;28;20068;-78
2022/08/09 05:33:11;;;;;;;11.45;5.28;;;18.60;99.90;;;;;;5013173;28;20063;-79
2022/08/09 05:35:37;;;;;;;12.18;5.03;;;18.60;99.90;;;;;;5008800;28;20057;-78
2022/08/09 05:38:03;;;;;;;6.90;4.53;;;18.70;99.90;;;;;;4997209;28;20081;-78
2022/08/09 05:40:28;;;;;;;9.35;5.13;;;18.70;99.90;;;;;;5010968;28;20022;-78
2022/08/09 05:42:55;;;;;;;11.65;4.95;;;18.90;99.90;;;;;;5012935;28;20505;-78
2022/08/09 05:45:22;;;;;;;8.00;4.82;;;18.90;99.90;;;;;;5012781;28;20128;-78
2022/08/09 05:47:48;;;;;;;13.65;5.53;;;18.90;99.90;;;;;;5013181;28;20569;-78
2022/08/09 05:50:14;;;;;;;14.02;5.80;;;19.10;99.90;;;;;;5012635;28;20105;-78
2022/08/09 05:52:41;;;;;;;9.95;5.32;;;19.00;99.90;;;;;;5011887;28;20030;-77
2022/08/09 05:55:08;;;;;;;14.10;5.47;;;19.00;99.90;;;;;;5012933;28;20419;-78
2022/08/09 05:57:35;;;;;;;18.23;5.80;;;19.30;99.90;;;;;;5008162;28;20028;-78
2022/08/09 06:00:00;;;;;;;11.02;4.30;;;19.50;99.90;;;;;;5003237;28;20106;-78
2022/08/09 06:02:26;;;;;;;13.55;5.30;;;19.40;99.90;;;;;;5012630;28;20030;-78
2022/08/09 06:04:52;;;;;;;11.32;4.65;;;19.50;99.90;;;;;;5001467;28;20385;-78
2022/08/09 06:07:18;;;;;;;17.17;4.80;;;19.50;99.90;;;;;;4996564;28;20038;-78
2022/08/09 06:09:43;;;;;;;8.90;4.80;;;19.50;99.90;;;;;;5001648;28;20076;-78
2022/08/09 06:12:09;;;;;;;14.55;5.25;;;19.70;99.90;;;;;;4998796;28;20487;-78
2022/08/09 06:14:35;;;;;;;14.18;4.60;;;19.80;99.90;;;;;;4999371;28;20030;-78
2022/08/09 06:17:01;;;;;;;15.48;5.93;;;19.60;99.90;;;;;;4992316;28;20120;-78
2022/08/09 06:19:26;;;;;;;8.13;4.97;;;19.60;99.90;;;;;;4994161;28;20030;-78
2022/08/09 06:21:52;;;;;;;9.65;4.88;;;19.40;99.90;;;;;;5000619;28;20077;-77
2022/08/09 06:24:18;;;;;;;11.48;5.28;;;19.90;99.90;;;;;;4997970;28;20054;-77
2022/08/09 06:26:44;;;;;;;15.13;5.35;;;19.90;99.90;;;;;;5007215;28;20665;-78
2022/08/09 06:29:09;;;;;;;9.77;6.05;;;19.70;99.90;;;;;;5005956;28;20034;-78
2022/08/09 06:31:36;;;;;;;15.10;5.20;;;19.90;99.90;;;;;;5007575;28;20172;-79
2022/08/09 06:34:02;;;;;;;12.05;4.53;;;19.90;99.90;;;;;;5005550;28;20041;-78
2022/08/09 06:36:28;;;;;;;12.00;4.85;;;20.00;99.90;;;;;;4999852;28;20096;-77
2022/08/09 06:38:54;;;;;;;15.38;5.53;;;20.20;99.90;;;;;;4997370;28;20018;-78
2022/08/09 06:41:20;;;;;;;10.10;5.20;;;20.30;99.90;;;;;;5008793;28;20056;-77
2022/08/09 06:43:47;;;;;;;14.13;5.30;;;20.40;99.90;;;;;;5006799;28;20050;-77
2022/08/09 06:46:14;;;;;;;13.18;5.82;;;20.30;99.90;;;;;;5002243;28;20084;-77
2022/08/09 06:48:41;;;;;;;9.55;5.68;;;20.40;99.90;;;;;;4999300;28;20068;-78
2022/08/09 06:51:08;;;;;;;11.07;6.10;;;20.70;99.90;;;;;;5001537;28;20034;-78
2022/08/09 06:53:34;;;;;;;11.52;5.63;;;20.80;99.90;;;;;;5012361;28;20018;-78
2022/08/09 06:56:01;;;;;;;12.93;5.97;;;20.80;99.90;;;;;;5006206;28;20543;-77
2022/08/09 06:58:28;;;;;;;10.52;5.93;;;21.00;99.90;;;;;;5006132;28;20030;-83
2022/08/09 07:00:54;;;;;;;13.93;5.28;;;21.20;99.90;;;;;;5002801;28;20036;-77
2022/08/09 07:03:21;;;;;;;10.30;5.93;;;21.20;99.90;;;;;;5009543;28;20026;-79
2022/08/09 07:05:47;;;;;;;11.13;5.88;;;21.30;99.90;;;;;;5004235;28;20120;-78
2022/08/09 07:08:13;;;;;;;9.18;4.80;;;21.60;99.90;;;;;;5002949;28;20066;-79
2022/08/09 07:10:39;;;;;;;14.23;5.53;;;21.70;99.90;;;;;;5002875;28;20022;-77
2022/08/09 07:13:05;;;;;;;13.23;4.88;;;21.90;99.90;;;;;;5012095;28;20061;-78
2022/08/09 07:15:30;;;;;;;10.75;5.93;;;22.10;99.90;;;;;;5009858;28;20022;-78
2022/08/09 07:17:56;;;;;;;8.73;4.30;;;22.10;99.90;;;;;;5005727;28;20436;-78
2022/08/09 07:20:24;;;;;;;16.90;5.90;;;22.10;99.90;;;;;;4995732;28;20023;-80
2022/08/09 07:22:51;;;;;;;9.65;4.50;;;21.90;99.90;;;;;;4996199;28;20026;-80
2022/08/09 07:25:17;;;;;;;11.00;4.60;;;21.70;99.90;;;;;;5001860;28;20037;-82
2022/08/09 07:27:43;;;;;;;6.82;4.07;;;21.80;99.90;;;;;;4995750;28;20455;-84
2022/08/09 07:30:13;;;;;;;11.20;4.80;;;21.70;99.90;;;;;;4995782;28;20018;-78
2022/08/09 07:32:40;;;;;;;10.88;4.63;;;21.50;99.90;;;;;;4994268;28;20027;-78
2022/08/09 07:35:09;;;;;;;10.82;4.03;;;21.60;99.90;;;;;;4995828;28;20022;-78
2022/08/09 07:37:35;;;;;;;11.18;4.15;;;21.60;99.90;;;;;;4995602;28;20085;-78
2022/08/09 07:40:02;;;;;;;13.18;4.03;;;21.60;99.90;;;;;;5009257;28;20040;-79
2022/08/09 07:42:27;;;;;;;10.68;3.97;;;21.80;99.90;;;;;;5010747;28;20014;-79
2022/08/09 07:44:53;;;;;;;9.93;3.78;;;21.80;99.90;;;;;;5007751;28;20092;-78
2022/08/09 07:47:20;;;;;;;11.38;3.65;;;21.90;99.90;;;;;;5014952;28;20376;-78
2022/08/09 07:49:46;;;;;;;10.88;2.92;;;22.10;99.90;;;;;;5015021;28;20018;-78
2022/08/09 07:52:12;;;;;;;7.05;3.38;;;22.20;99.90;;;;;;5012389;28;20530;-78
2022/08/09 07:54:38;;;;;;;6.95;2.60;;;22.50;99.90;;;;;;5014720;28;20038;-78
2022/08/09 07:57:04;;;;;;;6.50;2.28;;;22.70;99.90;;;;;;5015005;28;20029;-79
2022/08/09 07:59:29;;;;;;;6.80;2.50;;;22.70;99.90;;;;;;5010157;28;20014;-78
2022/08/09 08:01:55;;;;;;;10.05;2.92;;;22.90;99.90;;;;;;5007410;28;20065;-79
2022/08/09 08:04:22;;;;;;;10.07;2.05;;;22.90;99.90;;;;;;5014594;28;20076;-79
2022/08/09 08:06:48;;;;;;;8.63;2.10;;;22.70;99.90;;;;;;5010595;28;20038;-78
2022/08/09 08:09:15;;;;;;;6.93;2.78;;;22.90;99.90;;;;;;5010806;28;20030;-79
2022/08/09 08:11:41;;;;;;;6.40;2.33;;;23.10;99.90;;;;;;5010296;28;20077;-79
2022/08/09 08:14:07;;;;;;;4.20;1.50;;;23.00;99.90;;;;;;5005459;28;20030;-79
2022/08/09 08:16:33;;;;;;;7.40;1.85;;;23.20;99.90;;;;;;5014648;28;20026;-78
2022/08/09 08:18:59;;;;;;;7.68;2.63;;;23.20;99.90;;;;;;5014684;28;20033;-78
2022/08/09 08:21:25;;;;;;;3.28;1.40;;;22.80;99.90;;;;;;5014471;28;20029;-78
2022/08/09 08:23:51;;;;;;;4.55;1.60;;;23.00;99.90;;;;;;5014202;28;20180;-79
2022/08/09 08:26:17;;;;;;;3.90;1.48;;;23.20;99.90;;;;;;5014219;28;20041;-79
2022/08/09 08:28:42;;;;;;;7.47;1.40;;;23.30;99.90;;;;;;5014266;28;20044;-78
2022/08/09 08:31:08;;;;;;;5.80;1.63;;;23.40;99.90;;;;;;5014234;28;20116;-79
2022/08/09 08:33:34;;;;;;;4.97;1.50;;;23.70;99.90;;;;;;5014188;28;20486;-79
2022/08/09 08:36:00;;;;;;;7.75;1.30;;;23.80;99.90;;;;;;5014403;28;20022;-78
2022/08/09 08:38:27;;;;;;;5.28;1.48;;;23.80;99.90;;;;;;4999613;28;20030;-79
2022/08/09 08:40:55;;;;;;;4.18;1.45;;;23.70;99.90;;;;;;5014269;28;20156;-79
2022/08/09 08:43:22;;;;;;;3.40;1.17;;;23.90;99.50;;;;;;5013966;28;20556;-79
2022/08/09 08:45:54;;;;;;;6.13;1.10;;;24.00;99.70;;;;;;5013955;28;20497;-79
2022/08/09 08:48:21;;;;;;;5.65;1.10;;;24.00;99.60;;;;;;5014200;28;20372;-79
2022/08/09 08:50:48;;;;;;;8.00;1.92;;;24.30;99.30;;;;;;5013894;28;20037;-79
2022/08/09 08:53:14;;;;;;;3.30;1.20;;;24.20;98.80;;;;;;5013744;28;20422;-79
2022/08/09 08:55:43;;;;;;;2.65;1.20;;;24.20;98.90;;;;;;5013684;28;20374;-79
2022/08/09 08:58:09;;;;;;;8.00;1.55;;;24.20;98.40;;;;;;5013909;28;20505;-78
2022/08/09 09:00:35;;;;;;;8.07;1.35;;;24.30;98.50;;;;;;5012121;28;20034;-79
2022/08/09 09:03:03;;;;;;;7.78;1.85;;;24.40;98.60;;;;;;5013105;28;20033;-78
2022/08/09 09:05:30;;;;;;;7.35;1.35;;;24.60;98.80;;;;;;5013436;28;20041;-78
2022/08/09 09:07:58;;;;;;;1.55;0.70;;;24.90;97.80;;;;;;5000502;28;20112;-78
2022/08/09 09:10:26;;;;;;;6.03;1.02;;;25.00;97.90;;;;;;5013498;28;20057;-79
2022/08/09 09:12:53;;;;;;;8.82;1.52;;;25.00;97.00;;;;;;5013638;28;20034;-78
2022/08/09 09:15:19;;;;;;;5.57;1.92;;;25.10;97.60;;;;;;5013613;28;20383;-79
2022/08/09 09:17:45;;;;;;;5.53;1.52;;;25.60;97.00;;;;;;5013420;28;20030;-78
2022/08/09 09:20:13;;;;;;;3.20;1.25;;;25.50;96.90;;;;;;5008704;28;20049;-79
2022/08/09 09:22:48;;;;;;;4.15;1.00;;;25.50;96.50;;;;;;5008610;28;20069;-79
2022/08/09 09:25:32;;;;;;;2.45;1.00;;;25.50;96.60;;;;;;5013307;28;20029;-78
2022/08/09 09:27:58;;;;;;;3.92;1.17;;;25.50;96.50;;;;;;5011466;28;20077;-78
2022/08/09 09:30:24;;;;;;;3.85;1.40;;;25.50;96.60;;;;;;5013150;28;20025;-79
2022/08/09 09:33:11;;;;;;;8.77;1.55;;;25.50;96.20;;;;;;4993288;28;20084;-78
2022/08/09 09:35:52;;;;;;;4.35;1.33;;;25.90;96.20;;;;;;5008441;28;20085;-78
2022/08/09 09:38:21;;;;;;;2.70;1.10;;;26.00;95.50;;;;;;4997462;28;20040;-79
2022/08/09 09:40:47;;;;;;;2.53;1.30;;;26.00;95.00;;;;;;4999976;28;20092;-78
2022/08/09 09:43:18;;;;;;;7.88;1.27;;;26.20;95.40;;;;;;5008505;28;20038;-79
2022/08/09 09:45:52;;;;;;;2.50;0.85;;;26.10;95.50;;;;;;5012098;28;20034;-79
2022/08/09 09:48:20;;;;;;;4.97;1.20;;;25.90;95.10;;;;;;5011941;28;20479;-79
2022/08/09 09:50:50;;;;;;;4.30;1.30;;;26.10;95.00;;;;;;5012596;28;20060;-78
2022/08/09 09:53:25;;;;;;;6.15;1.45;;;26.10;95.50;;;;;;5013118;28;20132;-80
2022/08/09 09:56:01;;;;;;;4.57;1.30;;;26.50;94.90;;;;;;5012743;28;20030;-79
2022/08/09 09:58:44;;;;;;;7.47;1.48;;;26.40;94.90;;;;;;5013031;28;20109;-79
2022/08/09 10:01:18;;;;;;;3.72;1.05;;;26.00;95.20;;;;;;5008332;28;20046;-78
2022/08/09 10:03:47;;;;;;;5.80;1.60;;;26.10;94.80;;;;;;5006223;28;20483;-80
2022/08/09 10:06:13;;;;;;;5.32;1.30;;;26.30;95.10;;;;;;5012452;28;20041;-79
2022/08/09 10:08:44;;;;;;;5.57;1.42;;;26.70;95.00;;;;;;5012707;28;20030;-76
2022/08/09 10:11:24;;;;;;;4.72;1.17;;;26.80;94.50;;;;;;5012725;28;20034;-76
2022/08/09 10:13:52;;;;;;;3.38;1.13;;;27.00;94.50;;;;;;5013198;28;20028;-76
2022/08/09 10:16:46;;;;;;;7.78;1.50;;;26.80;93.80;;;;;;5016589;28;20030;-79
2022/08/09 10:19:12;;;;;;;9.38;1.17;;;27.10;94.00;;;;;;5016010;28;20063;-79
2022/08/09 10:21:46;;;;;;;5.03;1.33;;;27.10;94.30;;;;;;5016739;28;20045;-79
2022/08/09 10:24:15;;;;;;;3.67;1.20;;;27.20;93.40;;;;;;5012220;28;20026;-78
2022/08/09 10:26:41;;;;;;;4.35;1.17;;;27.20;94.00;;;;;;4995683;28;20034;-79
2022/08/09 10:29:12;;;;;;;3.65;1.10;;;27.30;93.60;;;;;;5008832;28;20040;-77
2022/08/09 10:31:41;;;;;;;8.90;1.17;;;27.30;93.30;;;;;;5016244;28;20112;-76
2022/08/09 10:34:11;;;;;;;2.75;1.17;;;27.50;93.70;;;;;;5012152;28;20026;-76
2022/08/09 10:36:37;;;;;;;6.25;1.25;;;27.80;93.50;;;;;;5014348;28;20033;-77
2022/08/09 10:39:03;;;;;;;4.60;1.45;;;28.10;92.80;;;;;;4998324;28;20526;-76
2022/08/09 10:41:29;;;;;;;4.07;1.25;;;28.20;92.60;;;;;;5008856;28;20034;-76
2022/08/09 10:43:56;;;;;;;6.05;1.52;;;27.90;92.90;;;;;;5011733;28;20026;-76
2022/08/09 10:46:43;;;;;;;12.70;1.77;;;27.60;92.90;;;;;;5002065;28;20034;-76
2022/08/09 10:49:38;;;;;;;4.20;1.63;;;27.70;93.20;;;;;;5015212;28;20498;-77
2022/08/09 10:52:28;;;;;;;6.03;1.27;;;27.80;92.70;;;;;;5015974;28;20041;-77
2022/08/09 10:54:54;;;;;;;4.10;1.10;;;27.80;92.80;;;;;;5014636;28;20038;-76
2022/08/09 10:57:22;;;;;;;6.40;1.38;;;28.10;92.50;;;;;;5015999;28;20056;-76
2022/08/09 10:59:48;;;;;;;5.85;1.10;;;27.80;92.50;;;;;;5015981;28;20044;-76
2022/08/09 11:02:37;;;;;;;4.18;1.40;;;28.10;92.30;;;;;;5011996;28;20031;-76
2022/08/09 11:05:15;;;;;;;4.70;1.08;;;28.20;92.10;;;;;;5003370;28;20026;-76
2022/08/09 11:07:41;;;;;;;5.10;1.00;;;28.30;92.70;;;;;;5008755;28;20082;-77
2022/08/09 11:10:07;;;;;;;5.80;1.30;;;28.60;92.10;;;;;;5010341;28;20057;-76
2022/08/09 11:12:33;;;;;;;2.25;1.05;;;28.90;92.00;;;;;;5005765;28;20030;-76
2022/08/09 11:15:17;;;;;;;1.95;1.02;;;29.10;91.20;;;;;;4998372;28;20042;-79
2022/08/09 11:17:48;;;;;;;7.28;1.50;;;29.60;90.80;;;;;;5009216;28;20506;-81
2022/08/09 11:20:15;;;;;;;3.40;1.10;;;30.00;90.90;;;;;;5005035;28;20108;-82
2022/08/09 11:22:43;;;;;;;4.75;1.08;;;29.90;90.30;;;;;;5005764;28;20030;-82
2022/08/09 11:25:34;;;;;;;3.47;1.20;;;29.30;90.70;;;;;;4997104;28;20030;-82
2022/08/09 11:28:01;;;;;;;6.68;1.30;;;29.40;90.50;;;;;;4998709;28;20041;-82
2022/08/09 11:30:27;;;;;;;4.22;1.08;;;29.10;90.70;;;;;;5003628;28;20022;-81
2022/08/09 11:33:05;;;;;;;3.47;1.23;;;29.30;90.30;;;;;;4994639;28;20030;-79
2022/08/09 11:35:45;;;;;;;7.00;1.20;;;29.30;90.40;;;;;;4998283;28;20107;-79
2022/08/09 11:38:21;;;;;;;9.93;1.13;;;29.40;90.10;;;;;;5007706;28;20030;-77
2022/08/09 11:40:47;;;;;;;7.85;1.05;;;29.40;90.50;;;;;;4999168;28;20383;-76
2022/08/09 11:43:28;;;;;;;4.07;1.02;;;29.70;90.10;;;;;;5004973;28;20034;-76
2022/08/09 11:45:59;;;;;;;2.05;0.98;;;30.00;89.30;;;;;;5010625;28;20382;-76
2022/08/09 11:48:31;;;;;;;4.22;1.10;;;30.10;87.50;;;;;;5008477;28;20564;-75
2022/08/09 11:51:04;;;;;;;3.70;1.10;;;30.40;87.70;;;;;;5008453;28;20113;-75
2022/08/09 11:53:37;;;;;;;3.67;1.20;;;30.10;87.80;;;;;;4997674;28;20054;-74
2022/08/09 11:56:15;;;;;;;7.85;1.63;;;30.10;88.30;;;;;;4999297;28;20034;-74
2022/08/09 11:58:55;;;;;;;2.53;1.05;;;30.40;88.10;;;;;;5009358;28;20033;-74
2022/08/09 12:01:36;;;;;;;2.47;0.85;;;30.60;86.40;;;;;;5004821;28;20084;-73
2022/08/09 12:04:06;;;;;;;2.15;0.77;;;30.70;86.40;;;;;;4997096;28;20034;-74
2022/08/09 12:06:34;;;;;;;2.83;1.10;;;31.10;85.50;;;;;;5003286;28;20069;-74
2022/08/09 12:09:05;;;;;;;3.53;0.73;;;31.00;85.10;;;;;;5005544;28;20478;-74
2022/08/09 12:11:31;;;;;;;9.15;1.10;;;31.20;84.60;;;;;;5003304;28;20085;-74
2022/08/09 12:14:09;;;;;;;4.18;0.98;;;31.50;84.50;;;;;;4992071;28;20085;-74
2022/08/09 12:16:40;;;;;;;6.82;0.90;;;31.00;83.90;;;;;;4993628;28;20402;-74
2022/08/09 12:19:08;;;;;;;7.55;0.93;;;31.20;84.00;;;;;;4993163;28;20364;-74
2022/08/09 12:21:37;;;;;;;4.68;0.90;;;31.70;82.90;;;;;;4998640;28;20458;-74
2022/08/09 12:24:06;;;;;;;2.88;0.75;;;31.50;82.70;;;;;;5004678;28;20029;-79
2022/08/09 12:26:39;;;;;;;3.78;1.08;;;31.20;82.40;;;;;;4996940;28;20026;-77
2022/08/09 12:29:06;;;;;;;1.85;0.85;;;31.10;83.30;;;;;;5006699;28;20120;-76
2022/08/09 12:31:33;;;;;;;5.30;1.05;;;31.00;82.90;;;;;;5008530;28;20080;-77
2022/08/09 12:33:59;;;;;;;3.65;0.90;;;31.00;82.70;;;;;;5008547;28;20084;-76
2022/08/09 12:36:25;;;;;;;8.85;1.05;;;30.90;82.30;;;;;;5003647;28;20026;-77
2022/08/09 12:38:52;;;;;;;2.90;0.88;;;31.40;81.50;;;;;;5005095;28;20398;-76
2022/08/09 12:41:31;;;;;;;7.28;1.20;;;31.80;81.30;;;;;;5011679;28;20058;-76
2022/08/09 12:43:59;;;;;;;3.05;0.85;;;31.30;80.40;;;;;;5011460;28;20041;-76
2022/08/09 12:46:26;;;;;;;21.20;2.08;;;31.40;80.80;;;;;;5013536;28;20041;-75
2022/08/09 12:48:54;;;;;;;4.47;0.88;;;32.20;81.10;;;;;;5013053;28;20057;-75
2022/08/09 12:51:22;;;;;;;7.15;1.05;;;32.10;80.20;;;;;;5012978;28;20033;-76